sensor_id;sensor_type;location;lat;lon;timestamp;P1;durP1;ratioP1;P2;durP2;ratioP2
70487;SDS011;57976;48.174;16.370;2022-11-25T00:01:18;5.80;;;1.60;;
70487;SDS011;57976;48.174;16.370;2022-11-25T00:03:24;5.50;;;1.90;;
70487;SDS011;57976;48.174;16.370;2022-11-25T00:05:32;5.80;;;1.80;;
70487;SDS011;57976;48.174;16.370;2022-11-25T00:07:37;7.00;;;2.00;;
70487;SDS011;57976;48.174;16.370;2022-11-25T00:09:42;6.70;;;1.90;;
70487;SDS011;57976;48.174;16.370;2022-11-25T00:11:46;6.20;;;1.80;;
70487;SDS011;57976;48.174;16.370;2022-11-25T00:13:51;5.60;;;1.90;;
70487;SDS011;57976;48.174;16.370;2022-11-25T00:15:59;5.80;;;1.70;;
70487;SDS011;57976;48.174;16.370;2022-11-25T00:18:04;4.60;;;1.50;;
70487;SDS011;57976;48.174;16.370;2022-11-25T00:20:09;5.20;;;2.00;;
70487;SDS011;57976;48.174;16.370;2022-11-25T00:22:14;5.50;;;1.80;;
70487;SDS011;57976;48.174;16.370;2022-11-25T00:24:19;5.70;;;1.80;;
70487;SDS011;57976;48.174;16.370;2022-11-25T00:26:24;6.30;;;1.70;;
70487;SDS011;57976;48.174;16.370;2022-11-25T00:28:30;5.70;;;1.70;;
70487;SDS011;57976;48.174;16.370;2022-11-25T00:30:35;7.10;;;1.90;;
70487;SDS011;57976;48.174;16.370;2022-11-25T00:32:39;6.30;;;1.80;;
70487;SDS011;57976;48.174;16.370;2022-11-25T00:34:44;6.10;;;1.80;;
70487;SDS011;57976;48.174;16.370;2022-11-25T00:36:49;6.90;;;1.90;;
70487;SDS011;57976;48.174;16.370;2022-11-25T00:38:54;6.20;;;1.80;;
70487;SDS011;57976;48.174;16.370;2022-11-25T00:40:59;6.40;;;1.90;;
70487;SDS011;57976;48.174;16.370;2022-11-25T00:43:04;7.10;;;1.90;;
70487;SDS011;57976;48.174;16.370;2022-11-25T00:45:10;5.40;;;1.80;;
70487;SDS011;57976;48.174;16.370;2022-11-25T00:47:16;6.80;;;1.70;;
70487;SDS011;57976;48.174;16.370;2022-11-25T00:49:22;5.20;;;1.70;;
70487;SDS011;57976;48.174;16.370;2022-11-25T00:51:27;5.60;;;1.90;;
70487;SDS011;57976;48.174;16.370;2022-11-25T00:53:32;5.30;;;1.70;;
70487;SDS011;57976;48.174;16.370;2022-11-25T00:55:36;6.00;;;1.90;;
70487;SDS011;57976;48.174;16.370;2022-11-25T00:57:41;6.60;;;2.20;;
70487;SDS011;57976;48.174;16.370;2022-11-25T00:59:46;5.80;;;1.90;;
70487;SDS011;57976;48.174;16.370;2022-11-25T01:01:51;5.50;;;1.70;;
70487;SDS011;57976;48.174;16.370;2022-11-25T01:03:56;5.10;;;1.80;;
70487;SDS011;57976;48.174;16.370;2022-11-25T01:06:01;6.20;;;2.00;;
70487;SDS011;57976;48.174;16.370;2022-11-25T01:08:09;5.60;;;2.00;;
70487;SDS011;57976;48.174;16.370;2022-11-25T01:10:14;4.90;;;1.70;;
70487;SDS011;57976;48.174;16.370;2022-11-25T01:12:19;6.30;;;1.80;;
70487;SDS011;57976;48.174;16.370;2022-11-25T01:14:26;5.20;;;1.60;;
70487;SDS011;57976;48.174;16.370;2022-11-25T01:16:31;5.70;;;1.90;;
70487;SDS011;57976;48.174;16.370;2022-11-25T01:18:36;6.30;;;1.80;;
70487;SDS011;57976;48.174;16.370;2022-11-25T01:20:40;6.30;;;1.90;;
70487;SDS011;57976;48.174;16.370;2022-11-25T01:22:45;5.20;;;1.80;;
70487;SDS011;57976;48.174;16.370;2022-11-25T01:24:50;4.60;;;1.60;;
70487;SDS011;57976;48.174;16.370;2022-11-25T01:26:55;5.90;;;1.70;;
70487;SDS011;57976;48.174;16.370;2022-11-25T01:29:00;5.80;;;1.70;;
70487;SDS011;57976;48.174;16.370;2022-11-25T01:31:09;5.10;;;1.50;;
70487;SDS011;57976;48.174;16.370;2022-11-25T01:33:16;6.50;;;1.80;;
70487;SDS011;57976;48.174;16.370;2022-11-25T01:35:20;5.10;;;1.70;;
70487;SDS011;57976;48.174;16.370;2022-11-25T01:37:25;5.60;;;1.60;;
70487;SDS011;57976;48.174;16.370;2022-11-25T01:39:30;6.90;;;2.00;;
70487;SDS011;57976;48.174;16.370;2022-11-25T01:41:35;6.50;;;1.50;;
70487;SDS011;57976;48.174;16.370;2022-11-25T01:43:40;5.90;;;2.00;;
70487;SDS011;57976;48.174;16.370;2022-11-25T01:45:45;5.70;;;1.80;;
70487;SDS011;57976;48.174;16.370;2022-11-25T01:47:50;5.60;;;1.60;;
70487;SDS011;57976;48.174;16.370;2022-11-25T01:50:01;5.70;;;1.80;;
70487;SDS011;57976;48.174;16.370;2022-11-25T01:52:13;6.90;;;1.60;;
70487;SDS011;57976;48.174;16.370;2022-11-25T01:54:23;6.00;;;2.10;;
70487;SDS011;57976;48.174;16.370;2022-11-25T01:56:33;6.20;;;1.70;;
70487;SDS011;57976;48.174;16.370;2022-11-25T01:58:44;6.00;;;2.30;;
70487;SDS011;57976;48.174;16.370;2022-11-25T02:00:51;6.10;;;1.80;;
70487;SDS011;57976;48.174;16.370;2022-11-25T02:02:59;5.50;;;1.90;;
70487;SDS011;57976;48.174;16.370;2022-11-25T02:05:06;6.70;;;1.90;;
70487;SDS011;57976;48.174;16.370;2022-11-25T02:07:16;6.40;;;1.90;;
70487;SDS011;57976;48.174;16.370;2022-11-25T02:09:26;6.00;;;2.10;;
70487;SDS011;57976;48.174;16.370;2022-11-25T02:11:32;5.80;;;1.90;;
70487;SDS011;57976;48.174;16.370;2022-11-25T02:13:40;6.30;;;1.80;;
70487;SDS011;57976;48.174;16.370;2022-11-25T02:15:46;5.70;;;2.00;;
70487;SDS011;57976;48.174;16.370;2022-11-25T02:17:51;5.70;;;1.90;;
70487;SDS011;57976;48.174;16.370;2022-11-25T02:19:59;5.10;;;1.70;;
70487;SDS011;57976;48.174;16.370;2022-11-25T02:22:08;5.20;;;1.80;;
70487;SDS011;57976;48.174;16.370;2022-11-25T02:24:21;6.30;;;1.90;;
70487;SDS011;57976;48.174;16.370;2022-11-25T02:26:32;6.00;;;1.80;;
70487;SDS011;57976;48.174;16.370;2022-11-25T02:28:37;6.70;;;2.00;;
70487;SDS011;57976;48.174;16.370;2022-11-25T02:30:42;5.50;;;1.80;;
70487;SDS011;57976;48.174;16.370;2022-11-25T02:32:47;5.70;;;1.90;;
70487;SDS011;57976;48.174;16.370;2022-11-25T02:34:52;5.00;;;1.60;;
70487;SDS011;57976;48.174;16.370;2022-11-25T02:36:57;5.80;;;1.60;;
70487;SDS011;57976;48.174;16.370;2022-11-25T02:39:02;5.80;;;1.90;;
70487;SDS011;57976;48.174;16.370;2022-11-25T02:41:09;5.20;;;1.70;;
70487;SDS011;57976;48.174;16.370;2022-11-25T02:43:18;6.30;;;1.70;;
70487;SDS011;57976;48.174;16.370;2022-11-25T02:45:24;7.20;;;1.80;;
70487;SDS011;57976;48.174;16.370;2022-11-25T02:47:35;5.60;;;1.80;;
70487;SDS011;57976;48.174;16.370;2022-11-25T02:49:40;5.00;;;1.70;;
70487;SDS011;57976;48.174;16.370;2022-11-25T02:51:45;5.20;;;1.70;;
70487;SDS011;57976;48.174;16.370;2022-11-25T02:53:52;4.90;;;1.50;;
70487;SDS011;57976;48.174;16.370;2022-11-25T02:55:57;6.10;;;1.60;;
70487;SDS011;57976;48.174;16.370;2022-11-25T02:58:04;6.20;;;1.80;;
70487;SDS011;57976;48.174;16.370;2022-11-25T03:00:09;4.70;;;1.50;;
70487;SDS011;57976;48.174;16.370;2022-11-25T03:02:15;6.10;;;1.70;;
70487;SDS011;57976;48.174;16.370;2022-11-25T03:04:20;4.90;;;1.50;;
70487;SDS011;57976;48.174;16.370;2022-11-25T03:06:24;4.30;;;1.40;;
70487;SDS011;57976;48.174;16.370;2022-11-25T03:08:30;6.60;;;1.70;;
70487;SDS011;57976;48.174;16.370;2022-11-25T03:10:35;5.50;;;1.80;;
70487;SDS011;57976;48.174;16.370;2022-11-25T03:12:40;4.80;;;1.40;;
70487;SDS011;57976;48.174;16.370;2022-11-25T03:14:45;6.40;;;1.40;;
70487;SDS011;57976;48.174;16.370;2022-11-25T03:16:50;4.40;;;1.50;;
70487;SDS011;57976;48.174;16.370;2022-11-25T03:18:55;6.90;;;1.60;;
70487;SDS011;57976;48.174;16.370;2022-11-25T03:20:59;5.30;;;1.70;;
70487;SDS011;57976;48.174;16.370;2022-11-25T03:23:04;5.30;;;1.50;;
70487;SDS011;57976;48.174;16.370;2022-11-25T03:25:10;4.80;;;1.60;;
70487;SDS011;57976;48.174;16.370;2022-11-25T03:27:15;5.90;;;1.50;;
70487;SDS011;57976;48.174;16.370;2022-11-25T03:29:20;5.90;;;1.50;;
70487;SDS011;57976;48.174;16.370;2022-11-25T03:31:25;4.30;;;1.20;;
70487;SDS011;57976;48.174;16.370;2022-11-25T03:33:29;5.50;;;1.50;;
70487;SDS011;57976;48.174;16.370;2022-11-25T03:35:34;5.10;;;1.70;;
70487;SDS011;57976;48.174;16.370;2022-11-25T03:37:39;6.00;;;1.50;;
70487;SDS011;57976;48.174;16.370;2022-11-25T03:39:44;6.20;;;1.80;;
70487;SDS011;57976;48.174;16.370;2022-11-25T03:41:49;4.60;;;1.40;;
70487;SDS011;57976;48.174;16.370;2022-11-25T03:43:54;5.20;;;1.60;;
70487;SDS011;57976;48.174;16.370;2022-11-25T03:45:59;6.80;;;1.70;;
70487;SDS011;57976;48.174;16.370;2022-11-25T03:48:04;5.10;;;1.50;;
70487;SDS011;57976;48.174;16.370;2022-11-25T03:50:10;6.60;;;1.80;;
70487;SDS011;57976;48.174;16.370;2022-11-25T03:52:16;5.20;;;1.50;;
70487;SDS011;57976;48.174;16.370;2022-11-25T03:54:21;5.90;;;1.60;;
70487;SDS011;57976;48.174;16.370;2022-11-25T03:56:55;4.80;;;1.40;;
70487;SDS011;57976;48.174;16.370;2022-11-25T03:59:00;4.20;;;1.30;;
70487;SDS011;57976;48.174;16.370;2022-11-25T04:01:04;5.40;;;1.30;;
70487;SDS011;57976;48.174;16.370;2022-11-25T04:03:10;5.30;;;1.60;;
70487;SDS011;57976;48.174;16.370;2022-11-25T04:05:14;5.50;;;1.70;;
70487;SDS011;57976;48.174;16.370;2022-11-25T04:07:19;5.20;;;1.40;;
70487;SDS011;57976;48.174;16.370;2022-11-25T04:09:24;5.70;;;1.30;;
70487;SDS011;57976;48.174;16.370;2022-11-25T04:11:30;5.00;;;1.30;;
70487;SDS011;57976;48.174;16.370;2022-11-25T04:13:35;5.20;;;1.20;;
70487;SDS011;57976;48.174;16.370;2022-11-25T04:15:43;5.60;;;1.60;;
70487;SDS011;57976;48.174;16.370;2022-11-25T04:17:49;4.70;;;1.30;;
70487;SDS011;57976;48.174;16.370;2022-11-25T04:19:55;5.70;;;1.50;;
70487;SDS011;57976;48.174;16.370;2022-11-25T04:22:00;5.70;;;1.50;;
70487;SDS011;57976;48.174;16.370;2022-11-25T04:24:05;4.40;;;1.30;;
70487;SDS011;57976;48.174;16.370;2022-11-25T04:26:10;5.20;;;1.40;;
70487;SDS011;57976;48.174;16.370;2022-11-25T04:28:15;6.70;;;1.50;;
70487;SDS011;57976;48.174;16.370;2022-11-25T04:30:23;4.80;;;1.40;;
70487;SDS011;57976;48.174;16.370;2022-11-25T04:32:28;7.00;;;2.10;;
70487;SDS011;57976;48.174;16.370;2022-11-25T04:34:33;7.20;;;2.20;;
70487;SDS011;57976;48.174;16.370;2022-11-25T04:36:38;5.80;;;1.60;;
70487;SDS011;57976;48.174;16.370;2022-11-25T04:38:43;6.60;;;1.60;;
70487;SDS011;57976;48.174;16.370;2022-11-25T04:40:48;6.50;;;2.00;;
70487;SDS011;57976;48.174;16.370;2022-11-25T04:42:54;7.10;;;2.20;;
70487;SDS011;57976;48.174;16.370;2022-11-25T04:45:09;6.30;;;1.80;;
70487;SDS011;57976;48.174;16.370;2022-11-25T04:47:26;5.60;;;1.50;;
70487;SDS011;57976;48.174;16.370;2022-11-25T04:49:31;5.90;;;1.50;;
70487;SDS011;57976;48.174;16.370;2022-11-25T04:51:36;5.40;;;1.70;;
70487;SDS011;57976;48.174;16.370;2022-11-25T04:53:41;6.30;;;1.60;;
70487;SDS011;57976;48.174;16.370;2022-11-25T04:55:46;6.00;;;1.80;;
70487;SDS011;57976;48.174;16.370;2022-11-25T04:57:50;6.50;;;1.80;;
70487;SDS011;57976;48.174;16.370;2022-11-25T04:59:55;6.90;;;1.80;;
70487;SDS011;57976;48.174;16.370;2022-11-25T05:02:00;6.80;;;1.70;;
70487;SDS011;57976;48.174;16.370;2022-11-25T05:04:10;5.60;;;1.30;;
70487;SDS011;57976;48.174;16.370;2022-11-25T05:06:15;5.30;;;1.50;;
70487;SDS011;57976;48.174;16.370;2022-11-25T05:08:19;5.70;;;1.60;;
70487;SDS011;57976;48.174;16.370;2022-11-25T05:10:24;5.50;;;1.50;;
70487;SDS011;57976;48.174;16.370;2022-11-25T05:12:29;6.10;;;1.40;;
70487;SDS011;57976;48.174;16.370;2022-11-25T05:14:34;4.70;;;1.50;;
70487;SDS011;57976;48.174;16.370;2022-11-25T05:16:39;6.70;;;2.00;;
70487;SDS011;57976;48.174;16.370;2022-11-25T05:18:44;6.60;;;1.50;;
70487;SDS011;57976;48.174;16.370;2022-11-25T05:20:49;5.70;;;1.70;;
70487;SDS011;57976;48.174;16.370;2022-11-25T05:22:55;7.10;;;1.80;;
70487;SDS011;57976;48.174;16.370;2022-11-25T05:25:00;5.60;;;1.80;;
70487;SDS011;57976;48.174;16.370;2022-11-25T05:27:05;7.00;;;2.00;;
70487;SDS011;57976;48.174;16.370;2022-11-25T05:29:10;8.10;;;2.20;;
70487;SDS011;57976;48.174;16.370;2022-11-25T05:31:15;6.60;;;2.00;;
70487;SDS011;57976;48.174;16.370;2022-11-25T05:33:20;7.50;;;2.00;;
70487;SDS011;57976;48.174;16.370;2022-11-25T05:35:25;7.10;;;1.80;;
70487;SDS011;57976;48.174;16.370;2022-11-25T05:37:30;7.40;;;2.00;;
70487;SDS011;57976;48.174;16.370;2022-11-25T05:39:38;6.20;;;2.20;;
70487;SDS011;57976;48.174;16.370;2022-11-25T05:42:12;7.90;;;2.00;;
70487;SDS011;57976;48.174;16.370;2022-11-25T05:44:17;6.50;;;2.20;;
70487;SDS011;57976;48.174;16.370;2022-11-25T05:46:26;7.30;;;2.10;;
70487;SDS011;57976;48.174;16.370;2022-11-25T05:48:31;5.70;;;2.00;;
70487;SDS011;57976;48.174;16.370;2022-11-25T05:50:36;5.30;;;1.50;;
70487;SDS011;57976;48.174;16.370;2022-11-25T05:52:50;6.70;;;1.90;;
70487;SDS011;57976;48.174;16.370;2022-11-25T05:55:02;6.40;;;2.00;;
70487;SDS011;57976;48.174;16.370;2022-11-25T05:57:08;6.80;;;1.80;;
70487;SDS011;57976;48.174;16.370;2022-11-25T05:59:25;7.00;;;1.90;;
70487;SDS011;57976;48.174;16.370;2022-11-25T06:01:40;5.50;;;1.90;;
70487;SDS011;57976;48.174;16.370;2022-11-25T06:03:45;6.10;;;1.80;;
70487;SDS011;57976;48.174;16.370;2022-11-25T06:05:50;6.70;;;1.90;;
70487;SDS011;57976;48.174;16.370;2022-11-25T06:07:57;6.40;;;1.80;;
70487;SDS011;57976;48.174;16.370;2022-11-25T06:10:02;6.20;;;2.10;;
70487;SDS011;57976;48.174;16.370;2022-11-25T06:12:10;6.20;;;2.00;;
70487;SDS011;57976;48.174;16.370;2022-11-25T06:14:20;6.90;;;2.10;;
70487;SDS011;57976;48.174;16.370;2022-11-25T06:16:26;6.30;;;1.90;;
70487;SDS011;57976;48.174;16.370;2022-11-25T06:18:51;6.50;;;2.00;;
70487;SDS011;57976;48.174;16.370;2022-11-25T06:20:56;6.70;;;1.80;;
70487;SDS011;57976;48.174;16.370;2022-11-25T06:23:02;6.40;;;1.80;;
70487;SDS011;57976;48.174;16.370;2022-11-25T06:25:08;6.20;;;1.70;;
70487;SDS011;57976;48.174;16.370;2022-11-25T06:27:13;5.10;;;1.60;;
70487;SDS011;57976;48.174;16.370;2022-11-25T06:29:18;6.40;;;1.80;;
70487;SDS011;57976;48.174;16.370;2022-11-25T06:31:24;5.50;;;1.50;;
70487;SDS011;57976;48.174;16.370;2022-11-25T06:33:38;6.40;;;2.10;;
70487;SDS011;57976;48.174;16.370;2022-11-25T06:35:45;6.70;;;1.80;;
70487;SDS011;57976;48.174;16.370;2022-11-25T06:37:50;7.00;;;2.00;;
70487;SDS011;57976;48.174;16.370;2022-11-25T06:39:54;5.10;;;1.70;;
70487;SDS011;57976;48.174;16.370;2022-11-25T06:41:59;7.30;;;2.20;;
70487;SDS011;57976;48.174;16.370;2022-11-25T06:44:04;7.70;;;2.30;;
70487;SDS011;57976;48.174;16.370;2022-11-25T06:46:09;6.60;;;2.00;;
70487;SDS011;57976;48.174;16.370;2022-11-25T06:48:15;6.60;;;1.90;;
70487;SDS011;57976;48.174;16.370;2022-11-25T06:50:20;6.30;;;2.00;;
70487;SDS011;57976;48.174;16.370;2022-11-25T06:52:25;7.10;;;2.30;;
70487;SDS011;57976;48.174;16.370;2022-11-25T06:54:31;6.80;;;2.40;;
70487;SDS011;57976;48.174;16.370;2022-11-25T06:56:37;7.80;;;2.50;;
70487;SDS011;57976;48.174;16.370;2022-11-25T06:58:43;7.70;;;2.40;;
70487;SDS011;57976;48.174;16.370;2022-11-25T07:00:49;9.20;;;2.50;;
70487;SDS011;57976;48.174;16.370;2022-11-25T07:02:53;10.10;;;2.50;;
70487;SDS011;57976;48.174;16.370;2022-11-25T07:04:58;9.90;;;2.70;;
70487;SDS011;57976;48.174;16.370;2022-11-25T07:07:03;8.80;;;2.30;;
70487;SDS011;57976;48.174;16.370;2022-11-25T07:09:08;8.00;;;2.70;;
70487;SDS011;57976;48.174;16.370;2022-11-25T07:11:14;5.90;;;2.50;;
70487;SDS011;57976;48.174;16.370;2022-11-25T07:13:20;7.60;;;2.50;;
70487;SDS011;57976;48.174;16.370;2022-11-25T07:15:25;7.20;;;2.70;;
70487;SDS011;57976;48.174;16.370;2022-11-25T07:17:30;7.30;;;2.60;;
70487;SDS011;57976;48.174;16.370;2022-11-25T07:19:34;8.00;;;2.60;;
70487;SDS011;57976;48.174;16.370;2022-11-25T07:21:39;6.30;;;2.50;;
70487;SDS011;57976;48.174;16.370;2022-11-25T07:23:45;7.70;;;2.50;;
70487;SDS011;57976;48.174;16.370;2022-11-25T07:25:50;7.40;;;2.50;;
70487;SDS011;57976;48.174;16.370;2022-11-25T07:27:55;8.70;;;2.70;;
70487;SDS011;57976;48.174;16.370;2022-11-25T07:29:59;9.30;;;2.60;;
70487;SDS011;57976;48.174;16.370;2022-11-25T07:32:24;8.50;;;2.70;;
70487;SDS011;57976;48.174;16.370;2022-11-25T07:34:29;6.90;;;2.20;;
70487;SDS011;57976;48.174;16.370;2022-11-25T07:36:34;8.00;;;2.60;;
70487;SDS011;57976;48.174;16.370;2022-11-25T07:38:39;8.30;;;2.60;;
70487;SDS011;57976;48.174;16.370;2022-11-25T07:40:48;8.80;;;2.90;;
70487;SDS011;57976;48.174;16.370;2022-11-25T07:42:53;7.40;;;2.70;;
70487;SDS011;57976;48.174;16.370;2022-11-25T07:44:58;8.20;;;2.60;;
70487;SDS011;57976;48.174;16.370;2022-11-25T07:47:15;7.00;;;2.30;;
70487;SDS011;57976;48.174;16.370;2022-11-25T07:49:20;9.20;;;3.10;;
70487;SDS011;57976;48.174;16.370;2022-11-25T07:51:26;8.50;;;2.70;;
70487;SDS011;57976;48.174;16.370;2022-11-25T07:53:32;7.20;;;2.60;;
70487;SDS011;57976;48.174;16.370;2022-11-25T07:55:37;7.50;;;2.60;;
70487;SDS011;57976;48.174;16.370;2022-11-25T07:57:41;8.20;;;2.40;;
70487;SDS011;57976;48.174;16.370;2022-11-25T07:59:46;6.70;;;2.20;;
70487;SDS011;57976;48.174;16.370;2022-11-25T08:01:51;7.20;;;2.50;;
70487;SDS011;57976;48.174;16.370;2022-11-25T08:03:57;9.60;;;2.20;;
70487;SDS011;57976;48.174;16.370;2022-11-25T08:06:02;6.30;;;2.20;;
70487;SDS011;57976;48.174;16.370;2022-11-25T08:08:08;9.00;;;2.30;;
70487;SDS011;57976;48.174;16.370;2022-11-25T08:10:13;6.80;;;2.30;;
70487;SDS011;57976;48.174;16.370;2022-11-25T08:12:17;7.80;;;2.20;;
70487;SDS011;57976;48.174;16.370;2022-11-25T08:14:22;7.00;;;2.00;;
70487;SDS011;57976;48.174;16.370;2022-11-25T08:16:27;7.50;;;2.30;;
70487;SDS011;57976;48.174;16.370;2022-11-25T08:18:32;5.90;;;1.90;;
70487;SDS011;57976;48.174;16.370;2022-11-25T08:20:37;7.40;;;2.10;;
70487;SDS011;57976;48.174;16.370;2022-11-25T08:22:42;7.80;;;2.20;;
70487;SDS011;57976;48.174;16.370;2022-11-25T08:24:46;8.60;;;2.30;;
70487;SDS011;57976;48.174;16.370;2022-11-25T08:26:51;7.20;;;1.80;;
70487;SDS011;57976;48.174;16.370;2022-11-25T08:28:56;7.30;;;2.30;;
70487;SDS011;57976;48.174;16.370;2022-11-25T08:31:02;7.20;;;2.30;;
70487;SDS011;57976;48.174;16.370;2022-11-25T08:33:08;7.70;;;2.30;;
70487;SDS011;57976;48.174;16.370;2022-11-25T08:35:13;9.40;;;2.20;;
70487;SDS011;57976;48.174;16.370;2022-11-25T08:37:18;7.80;;;2.40;;
70487;SDS011;57976;48.174;16.370;2022-11-25T08:39:22;8.10;;;2.50;;
70487;SDS011;57976;48.174;16.370;2022-11-25T08:41:47;7.90;;;1.80;;
70487;SDS011;57976;48.174;16.370;2022-11-25T08:43:51;7.70;;;2.30;;
70487;SDS011;57976;48.174;16.370;2022-11-25T08:45:56;7.00;;;2.10;;
70487;SDS011;57976;48.174;16.370;2022-11-25T08:48:01;7.70;;;2.30;;
70487;SDS011;57976;48.174;16.370;2022-11-25T08:50:07;8.30;;;2.30;;
70487;SDS011;57976;48.174;16.370;2022-11-25T08:52:16;7.30;;;1.90;;
70487;SDS011;57976;48.174;16.370;2022-11-25T08:54:21;7.00;;;2.00;;
70487;SDS011;57976;48.174;16.370;2022-11-25T08:56:25;8.30;;;2.00;;
70487;SDS011;57976;48.174;16.370;2022-11-25T08:58:30;7.00;;;1.90;;
70487;SDS011;57976;48.174;16.370;2022-11-25T09:00:35;6.50;;;2.00;;
70487;SDS011;57976;48.174;16.370;2022-11-25T09:02:40;8.60;;;2.00;;
70487;SDS011;57976;48.174;16.370;2022-11-25T09:04:45;8.30;;;1.90;;
70487;SDS011;57976;48.174;16.370;2022-11-25T09:06:50;6.10;;;1.90;;
70487;SDS011;57976;48.174;16.370;2022-11-25T09:08:55;6.00;;;1.90;;
70487;SDS011;57976;48.174;16.370;2022-11-25T09:11:01;7.90;;;2.30;;
70487;SDS011;57976;48.174;16.370;2022-11-25T09:13:07;7.10;;;2.00;;
70487;SDS011;57976;48.174;16.370;2022-11-25T09:15:11;6.20;;;1.90;;
70487;SDS011;57976;48.174;16.370;2022-11-25T09:17:16;8.00;;;2.30;;
70487;SDS011;57976;48.174;16.370;2022-11-25T09:19:21;9.20;;;2.20;;
70487;SDS011;57976;48.174;16.370;2022-11-25T09:21:26;9.40;;;2.60;;
70487;SDS011;57976;48.174;16.370;2022-11-25T09:23:30;8.00;;;2.80;;
70487;SDS011;57976;48.174;16.370;2022-11-25T09:25:35;8.00;;;2.80;;
70487;SDS011;57976;48.174;16.370;2022-11-25T09:27:39;7.30;;;2.50;;
70487;SDS011;57976;48.174;16.370;2022-11-25T09:29:44;9.40;;;3.40;;
70487;SDS011;57976;48.174;16.370;2022-11-25T09:31:49;9.60;;;3.30;;
70487;SDS011;57976;48.174;16.370;2022-11-25T09:33:57;8.10;;;3.10;;
70487;SDS011;57976;48.174;16.370;2022-11-25T09:36:02;9.20;;;3.50;;
70487;SDS011;57976;48.174;16.370;2022-11-25T09:38:07;9.60;;;3.40;;
70487;SDS011;57976;48.174;16.370;2022-11-25T09:40:15;8.30;;;3.00;;
70487;SDS011;57976;48.174;16.370;2022-11-25T09:42:27;9.90;;;3.40;;
70487;SDS011;57976;48.174;16.370;2022-11-25T09:44:44;10.70;;;3.40;;
70487;SDS011;57976;48.174;16.370;2022-11-25T09:47:03;9.60;;;3.50;;
70487;SDS011;57976;48.174;16.370;2022-11-25T09:49:22;9.00;;;3.40;;
70487;SDS011;57976;48.174;16.370;2022-11-25T09:51:38;9.40;;;3.60;;
70487;SDS011;57976;48.174;16.370;2022-11-25T09:53:53;8.10;;;3.50;;
70487;SDS011;57976;48.174;16.370;2022-11-25T09:56:01;8.00;;;3.60;;
70487;SDS011;57976;48.174;16.370;2022-11-25T09:58:15;9.90;;;3.50;;
70487;SDS011;57976;48.174;16.370;2022-11-25T10:00:31;9.10;;;3.50;;
70487;SDS011;57976;48.174;16.370;2022-11-25T10:02:40;11.20;;;4.00;;
70487;SDS011;57976;48.174;16.370;2022-11-25T10:04:49;8.60;;;3.40;;
70487;SDS011;57976;48.174;16.370;2022-11-25T10:07:00;8.80;;;2.40;;
70487;SDS011;57976;48.174;16.370;2022-11-25T10:09:09;8.40;;;2.40;;
70487;SDS011;57976;48.174;16.370;2022-11-25T10:11:21;7.50;;;2.50;;
70487;SDS011;57976;48.174;16.370;2022-11-25T10:13:33;10.10;;;2.90;;
70487;SDS011;57976;48.174;16.370;2022-11-25T10:15:45;10.80;;;3.10;;
70487;SDS011;57976;48.174;16.370;2022-11-25T10:17:53;9.60;;;3.00;;
70487;SDS011;57976;48.174;16.370;2022-11-25T10:20:01;9.10;;;2.70;;
70487;SDS011;57976;48.174;16.370;2022-11-25T10:22:12;9.70;;;2.90;;
70487;SDS011;57976;48.174;16.370;2022-11-25T10:24:23;10.20;;;3.00;;
70487;SDS011;57976;48.174;16.370;2022-11-25T10:26:29;8.70;;;3.10;;
70487;SDS011;57976;48.174;16.370;2022-11-25T10:28:40;9.60;;;3.50;;
70487;SDS011;57976;48.174;16.370;2022-11-25T10:30:56;10.80;;;2.90;;
70487;SDS011;57976;48.174;16.370;2022-11-25T10:33:11;8.80;;;3.10;;
70487;SDS011;57976;48.174;16.370;2022-11-25T10:35:30;8.70;;;3.30;;
70487;SDS011;57976;48.174;16.370;2022-11-25T10:37:39;9.90;;;3.30;;
70487;SDS011;57976;48.174;16.370;2022-11-25T10:39:47;8.70;;;3.10;;
70487;SDS011;57976;48.174;16.370;2022-11-25T10:41:54;7.70;;;2.80;;
70487;SDS011;57976;48.174;16.370;2022-11-25T10:44:00;9.90;;;3.20;;
70487;SDS011;57976;48.174;16.370;2022-11-25T10:46:07;9.20;;;3.00;;
70487;SDS011;57976;48.174;16.370;2022-11-25T10:48:21;9.40;;;3.20;;
70487;SDS011;57976;48.174;16.370;2022-11-25T10:50:51;8.80;;;2.80;;
70487;SDS011;57976;48.174;16.370;2022-11-25T10:53:09;10.40;;;2.90;;
70487;SDS011;57976;48.174;16.370;2022-11-25T10:55:18;9.60;;;2.70;;
70487;SDS011;57976;48.174;16.370;2022-11-25T10:57:27;8.50;;;2.40;;
70487;SDS011;57976;48.174;16.370;2022-11-25T10:59:35;8.60;;;2.50;;
70487;SDS011;57976;48.174;16.370;2022-11-25T11:01:41;8.40;;;2.90;;
70487;SDS011;57976;48.174;16.370;2022-11-25T11:03:50;9.10;;;2.30;;
70487;SDS011;57976;48.174;16.370;2022-11-25T11:05:56;8.40;;;2.30;;
70487;SDS011;57976;48.174;16.370;2022-11-25T11:08:19;7.70;;;2.10;;
70487;SDS011;57976;48.174;16.370;2022-11-25T11:10:26;8.40;;;2.30;;
70487;SDS011;57976;48.174;16.370;2022-11-25T11:12:31;7.50;;;2.20;;
70487;SDS011;57976;48.174;16.370;2022-11-25T11:14:35;8.10;;;2.00;;
70487;SDS011;57976;48.174;16.370;2022-11-25T11:16:41;6.00;;;1.90;;
70487;SDS011;57976;48.174;16.370;2022-11-25T11:18:53;7.00;;;1.60;;
70487;SDS011;57976;48.174;16.370;2022-11-25T11:20:59;7.20;;;1.80;;
70487;SDS011;57976;48.174;16.370;2022-11-25T11:23:07;7.40;;;2.00;;
70487;SDS011;57976;48.174;16.370;2022-11-25T11:25:23;7.60;;;1.90;;
70487;SDS011;57976;48.174;16.370;2022-11-25T11:27:30;6.40;;;1.70;;
70487;SDS011;57976;48.174;16.370;2022-11-25T11:29:39;8.70;;;2.20;;
70487;SDS011;57976;48.174;16.370;2022-11-25T11:31:44;9.10;;;2.40;;
70487;SDS011;57976;48.174;16.370;2022-11-25T11:34:02;8.20;;;2.30;;
70487;SDS011;57976;48.174;16.370;2022-11-25T11:36:30;8.40;;;2.10;;
70487;SDS011;57976;48.174;16.370;2022-11-25T11:38:44;8.10;;;2.20;;
70487;SDS011;57976;48.174;16.370;2022-11-25T11:40:54;8.00;;;2.10;;
70487;SDS011;57976;48.174;16.370;2022-11-25T11:43:13;9.00;;;2.50;;
70487;SDS011;57976;48.174;16.370;2022-11-25T11:45:36;7.70;;;2.30;;
70487;SDS011;57976;48.174;16.370;2022-11-25T11:47:57;9.30;;;2.20;;
70487;SDS011;57976;48.174;16.370;2022-11-25T11:50:24;6.90;;;2.20;;
70487;SDS011;57976;48.174;16.370;2022-11-25T11:52:36;7.50;;;2.50;;
70487;SDS011;57976;48.174;16.370;2022-11-25T11:54:53;9.10;;;2.50;;
70487;SDS011;57976;48.174;16.370;2022-11-25T11:57:03;7.20;;;2.10;;
70487;SDS011;57976;48.174;16.370;2022-11-25T11:59:20;8.60;;;2.40;;
70487;SDS011;57976;48.174;16.370;2022-11-25T12:01:47;8.60;;;2.30;;
70487;SDS011;57976;48.174;16.370;2022-11-25T12:04:07;8.60;;;1.90;;
70487;SDS011;57976;48.174;16.370;2022-11-25T12:06:18;7.90;;;2.00;;
70487;SDS011;57976;48.174;16.370;2022-11-25T12:08:26;6.20;;;1.90;;
70487;SDS011;57976;48.174;16.370;2022-11-25T12:10:37;8.30;;;2.40;;
70487;SDS011;57976;48.174;16.370;2022-11-25T12:12:49;8.10;;;2.60;;
70487;SDS011;57976;48.174;16.370;2022-11-25T12:15:02;8.40;;;2.10;;
70487;SDS011;57976;48.174;16.370;2022-11-25T12:17:15;8.00;;;2.20;;
70487;SDS011;57976;48.174;16.370;2022-11-25T12:19:24;8.20;;;2.20;;
70487;SDS011;57976;48.174;16.370;2022-11-25T12:21:40;7.60;;;2.10;;
70487;SDS011;57976;48.174;16.370;2022-11-25T12:23:55;7.20;;;1.90;;
70487;SDS011;57976;48.174;16.370;2022-11-25T12:26:06;7.60;;;2.00;;
70487;SDS011;57976;48.174;16.370;2022-11-25T12:28:17;9.40;;;2.60;;
70487;SDS011;57976;48.174;16.370;2022-11-25T12:30:30;11.50;;;2.80;;
70487;SDS011;57976;48.174;16.370;2022-11-25T12:32:52;9.20;;;2.70;;
70487;SDS011;57976;48.174;16.370;2022-11-25T12:35:04;8.90;;;2.30;;
70487;SDS011;57976;48.174;16.370;2022-11-25T12:37:27;8.40;;;2.20;;